»·PEaware :: N3KW KEEO-20V

N3KW :: KEEO-20V

FLIGHT INFORMATION

Flight Status: Arrived
Operator: Privately registered:
United States
More flights under this callsign
Pilot: Matteo M. (13094)
Aircraft: BELL TEXTRON MODEL 412
(B412)
More flights by this aircraft type
Origin: KEEO Meeker
United States
Destination: 20V McElroy
United States
More flights between these airports :: More routes between these airports
Route: EKR V200 RLG
File this flight plan on PilotEdge
Remarks:
Altitude:
(Current/Filed)
15,000ft
Speed:
(Current/Filed)
120kts
Departed: 30-Apr-19 07:01 PM
Arrived: 30-Apr-19 08:28 PM
Distance/Time
Traveled:
70nm/1:27
Distance/Time
To Go:
Arrived

Flight Plot

Page will automatically refresh every two minutes.

Flight plan parsing failed; only flown route is shown


Map Options




Map Legend


Flown Route
Filed Route
Departure Airport
Arrival Airport
Navaid (VOR, NDB)
Fix

Horizontal Profiles

Position Reports

Time Latitude Longitude Heading Altitude Ground
Speed
30-Apr-19 18:36 40.042113 -107.890692 222 6389ft 0kts
30-Apr-19 18:37 40.042113 -107.890692 222 6389ft 0kts
30-Apr-19 18:38 40.042113 -107.890692 222 6389ft 0kts
30-Apr-19 18:39 40.042113 -107.890692 222 6389ft 0kts
30-Apr-19 18:40 40.042113 -107.890692 222 6389ft 0kts
30-Apr-19 18:41 40.042113 -107.890692 222 6389ft 0kts
30-Apr-19 18:42 40.042113 -107.890692 222 6389ft 0kts
30-Apr-19 18:43 40.042113 -107.890692 222 6389ft 0kts
30-Apr-19 18:44 40.042113 -107.890692 222 6389ft 0kts
30-Apr-19 18:45 40.042113 -107.890692 222 6389ft 0kts
30-Apr-19 18:46 40.042113 -107.890692 222 6389ft 0kts
30-Apr-19 18:46 40.042113 -107.890692 222 6389ft 0kts
30-Apr-19 18:48 40.042113 -107.890692 222 6389ft 0kts
30-Apr-19 18:48 40.042113 -107.890692 222 6389ft 0kts
30-Apr-19 18:50 40.042113 -107.890692 222 6389ft 0kts
30-Apr-19 18:50 40.042113 -107.890692 222 6389ft 0kts
30-Apr-19 18:51 40.042113 -107.890692 222 6389ft 0kts
30-Apr-19 18:53 40.042113 -107.890692 222 6389ft 0kts
30-Apr-19 18:53 40.042113 -107.890692 221 6389ft 0kts
30-Apr-19 18:55 40.042113 -107.890692 221 6389ft 0kts
30-Apr-19 18:55 40.042113 -107.890692 221 6389ft 0kts
30-Apr-19 18:56 40.042113 -107.890692 221 6389ft 0kts
30-Apr-19 18:57 40.042113 -107.890692 221 6389ft 0kts
30-Apr-19 18:58 40.042113 -107.890692 221 6389ft 0kts
30-Apr-19 18:59 40.042113 -107.890692 221 6389ft 0kts
30-Apr-19 19:00 40.037100 -107.893937 245 6591ft 74kts
30-Apr-19 19:01 40.039110 -107.906875 34 7530ft 56kts
30-Apr-19 19:02 40.042570 -107.885502 64 8378ft 52kts
30-Apr-19 19:03 40.042058 -107.906891 196 9097ft 124kts
30-Apr-19 19:04 40.036790 -107.906680 350 9976ft 56kts
30-Apr-19 19:05 40.041515 -107.919653 12 11000ft 30kts
30-Apr-19 19:06 40.041958 -107.926877 36 11794ft 17kts
30-Apr-19 19:07 40.039005 -107.932047 53 12568ft 22kts
30-Apr-19 19:08 40.037350 -107.931112 52 13154ft 24kts
30-Apr-19 19:09 40.039766 -107.921595 53 13681ft 36kts
30-Apr-19 19:10 40.044654 -107.904704 60 14179ft 56kts
30-Apr-19 19:11 40.045349 -107.883136 74 14649ft 65kts
30-Apr-19 19:12 40.042297 -107.859828 75 15027ft 67kts
30-Apr-19 19:13 40.038882 -107.835528 80 14982ft 80kts
30-Apr-19 19:14 40.035802 -107.806003 78 14985ft 77kts
30-Apr-19 19:15 40.033685 -107.781065 72 14987ft 59kts
30-Apr-19 19:16 40.034062 -107.756517 72 14964ft 90kts
30-Apr-19 19:17 40.031398 -107.752591 74 15462ft 25kts
30-Apr-19 19:18 40.031308 -107.723191 77 14584ft 92kts
30-Apr-19 19:19 40.038419 -107.703153 51 14801ft 43kts
30-Apr-19 19:20 40.046871 -107.689793 55 15000ft 61kts
30-Apr-19 19:21 40.053103 -107.665771 71 14829ft 77kts
30-Apr-19 19:22 40.051800 -107.636550 74 14901ft 85kts
30-Apr-19 19:23 40.049027 -107.607872 77 14886ft 76kts
30-Apr-19 19:24 40.047665 -107.581357 76 14891ft 71kts
30-Apr-19 19:25 40.046919 -107.554938 77 14898ft 73kts
30-Apr-19 19:26 40.045761 -107.528882 78 14900ft 71kts
30-Apr-19 19:27 40.044471 -107.502621 78 14916ft 70kts
30-Apr-19 19:28 40.043013 -107.476919 78 14914ft 70kts
30-Apr-19 19:29 40.041598 -107.451115 78 14915ft 71kts
30-Apr-19 19:30 40.040126 -107.425084 78 14910ft 71kts
30-Apr-19 19:31 40.038670 -107.399090 78 14909ft 72kts
30-Apr-19 19:32 40.037270 -107.372672 78 14924ft 74kts
30-Apr-19 19:33 40.035820 -107.346234 79 14924ft 75kts
30-Apr-19 19:34 40.034208 -107.319599 79 14921ft 74kts
30-Apr-19 19:35 40.031898 -107.292825 78 14941ft 73kts
30-Apr-19 19:36 40.029608 -107.266487 77 14941ft 72kts
30-Apr-19 19:37 40.027632 -107.240333 76 14932ft 72kts
30-Apr-19 19:38 40.025853 -107.214123 76 14932ft 72kts
30-Apr-19 19:39 40.024145 -107.188031 76 14950ft 72kts
30-Apr-19 19:40 40.022597 -107.161680 76 14949ft 74kts
30-Apr-19 19:41 40.020972 -107.135701 78 14936ft 70kts
30-Apr-19 19:42 40.017061 -107.109349 80 14932ft 74kts
30-Apr-19 19:43 40.013599 -107.082876 77 14790ft 91kts
30-Apr-19 19:44 40.013593 -107.052966 69 14945ft 62kts
30-Apr-19 19:45 40.011438 -107.029994 73 14926ft 70kts
30-Apr-19 19:46 40.010927 -107.004901 72 14926ft 69kts
30-Apr-19 19:47 40.010829 -106.979877 72 14930ft 69kts
30-Apr-19 19:48 40.010166 -106.954764 72 14929ft 70kts
30-Apr-19 19:49 40.009446 -106.929459 71 14920ft 70kts
30-Apr-19 19:50 40.008788 -106.904229 71 14482ft 69kts
30-Apr-19 19:51 40.008565 -106.879572 71 14017ft 68kts
30-Apr-19 19:52 40.008356 -106.855242 71 13559ft 66kts
30-Apr-19 19:53 40.008168 -106.831137 71 13120ft 65kts
30-Apr-19 19:54 40.007981 -106.807393 71 13055ft 64kts
30-Apr-19 19:55 40.006451 -106.782078 70 13053ft 71kts
30-Apr-19 19:56 40.007508 -106.756574 71 13052ft 73kts
30-Apr-19 19:57 40.007826 -106.727817 74 13057ft 81kts
30-Apr-19 19:58 40.006737 -106.698453 75 13052ft 82kts
30-Apr-19 19:59 40.006125 -106.669437 73 13065ft 80kts
30-Apr-19 20:00 40.006494 -106.640080 76 13064ft 82kts
30-Apr-19 20:01 40.005744 -106.611679 75 13060ft 82kts
30-Apr-19 20:02 40.005242 -106.582026 74 13076ft 81kts
30-Apr-19 20:03 40.004800 -106.552914 75 13062ft 80kts
30-Apr-19 20:04 40.003956 -106.523482 72 13068ft 81kts
30-Apr-19 20:05 39.999370 -106.494190 126 13057ft 114kts
30-Apr-19 20:06 39.972895 -106.522215 254 13099ft 136kts
30-Apr-19 20:07 39.957547 -106.565966 246 13069ft 133kts
30-Apr-19 20:08 39.940561 -106.609497 252 13056ft 138kts
30-Apr-19 20:09 39.923197 -106.654140 253 13063ft 136kts
30-Apr-19 20:10 39.913713 -106.699758 284 13075ft 127kts
30-Apr-19 20:11 39.920066 -106.727498 54 13055ft 56kts
30-Apr-19 20:12 39.911911 -106.701497 79 13051ft 77kts
30-Apr-19 20:13 39.916205 -106.677029 58 13056ft 68kts
30-Apr-19 20:14 39.924954 -106.652873 57 13059ft 78kts
30-Apr-19 20:15 39.934068 -106.628019 56 12901ft 74kts
30-Apr-19 20:16 39.943142 -106.603886 56 12392ft 73kts
30-Apr-19 20:17 39.952512 -106.580225 59 11882ft 73kts
30-Apr-19 20:18 39.961005 -106.555937 55 11920ft 73kts
30-Apr-19 20:19 39.969965 -106.532161 57 11913ft 73kts
30-Apr-19 20:20 39.978755 -106.508155 57 11723ft 73kts
30-Apr-19 20:21 39.987499 -106.484295 57 11259ft 71kts
30-Apr-19 20:22 39.996132 -106.460632 57 10775ft 71kts
30-Apr-19 20:23 40.005800 -106.437090 56 10623ft 74kts
30-Apr-19 20:24 40.018078 -106.419812 37 9430ft 51kts
30-Apr-19 20:25 40.032859 -106.409113 29 9032ft 71kts
30-Apr-19 20:26 40.049595 -106.395781 50 8320ft 73kts
30-Apr-19 20:27 40.055652 -106.379370 63 7726ft 33kts
30-Apr-19 20:28 40.054954 -106.371455 45 7458ft 9kts
30-Apr-19 20:29 40.055001 -106.370643 31 7382ft 0kts
30-Apr-19 20:30 40.055001 -106.370643 31 7382ft 0kts
30-Apr-19 20:31 40.055001 -106.370643 31 7382ft 0kts
30-Apr-19 20:32 40.055001 -106.370643 31 7382ft 0kts

Navigation Log

Ident Type
Flight plan parsing failed, navigation log unavailable